sensor_id;sensor_type;location;lat;lon;timestamp;pressure;altitude;pressure_sealevel;temperature;humidity
75740;BME280;64357;51.344;6.550;2023-05-06T00:00:42;101168.66;;;12.43;100.00
75740;BME280;64357;51.344;6.550;2023-05-06T00:03:07;101172.38;;;12.47;100.00
75740;BME280;64357;51.344;6.550;2023-05-06T00:05:34;101168.34;;;12.49;100.00
75740;BME280;64357;51.344;6.550;2023-05-06T00:08:03;101159.13;;;12.51;100.00
75740;BME280;64357;51.344;6.550;2023-05-06T00:10:29;101165.91;;;12.50;100.00
75740;BME280;64357;51.344;6.550;2023-05-06T00:12:54;101152.50;;;12.44;100.00
75740;BME280;64357;51.344;6.550;2023-05-06T00:15:20;101150.41;;;12.49;100.00
75740;BME280;64357;51.344;6.550;2023-05-06T00:17:45;101156.09;;;12.46;100.00
75740;BME280;64357;51.344;6.550;2023-05-06T00:20:11;101152.78;;;12.47;100.00
75740;BME280;64357;51.344;6.550;2023-05-06T00:22:38;101158.97;;;12.49;100.00
75740;BME280;64357;51.344;6.550;2023-05-06T00:25:04;101161.09;;;12.45;100.00
75740;BME280;64357;51.344;6.550;2023-05-06T00:27:30;101151.59;;;12.44;100.00
75740;BME280;64357;51.344;6.550;2023-05-06T00:30:00;101166.34;;;12.46;100.00
75740;BME280;64357;51.344;6.550;2023-05-06T00:32:25;101164.09;;;12.49;100.00
75740;BME280;64357;51.344;6.550;2023-05-06T00:34:50;101153.06;;;12.59;100.00
75740;BME280;64357;51.344;6.550;2023-05-06T00:37:18;101144.50;;;12.50;100.00
75740;BME280;64357;51.344;6.550;2023-05-06T00:39:43;101155.25;;;12.37;100.00
75740;BME280;64357;51.344;6.550;2023-05-06T00:42:09;101140.47;;;12.26;100.00
75740;BME280;64357;51.344;6.550;2023-05-06T00:44:37;101145.00;;;12.20;100.00
75740;BME280;64357;51.344;6.550;2023-05-06T00:47:03;101141.06;;;12.06;100.00
75740;BME280;64357;51.344;6.550;2023-05-06T00:49:28;101142.13;;;11.99;100.00
75740;BME280;64357;51.344;6.550;2023-05-06T00:51:54;101148.16;;;11.91;100.00
75740;BME280;64357;51.344;6.550;2023-05-06T00:54:23;101143.50;;;11.87;100.00
75740;BME280;64357;51.344;6.550;2023-05-06T00:56:48;101136.72;;;11.88;100.00
75740;BME280;64357;51.344;6.550;2023-05-06T00:59:14;101136.44;;;11.85;100.00
75740;BME280;64357;51.344;6.550;2023-05-06T01:01:39;101140.72;;;11.77;100.00
75740;BME280;64357;51.344;6.550;2023-05-06T01:04:05;101143.47;;;11.79;100.00
75740;BME280;64357;51.344;6.550;2023-05-06T01:06:48;101144.03;;;11.76;100.00
75740;BME280;64357;51.344;6.550;2023-05-06T01:09:31;101143.91;;;11.74;100.00
75740;BME280;64357;51.344;6.550;2023-05-06T01:12:10;101137.41;;;11.69;100.00
75740;BME280;64357;51.344;6.550;2023-05-06T01:17:11;101133.78;;;11.50;100.00
75740;BME280;64357;51.344;6.550;2023-05-06T01:19:43;101129.53;;;11.42;100.00
75740;BME280;64357;51.344;6.550;2023-05-06T01:22:15;101141.72;;;11.36;100.00
75740;BME280;64357;51.344;6.550;2023-05-06T01:24:42;101136.63;;;11.44;100.00
75740;BME280;64357;51.344;6.550;2023-05-06T01:27:09;101136.50;;;11.52;100.00
75740;BME280;64357;51.344;6.550;2023-05-06T01:29:37;101141.13;;;11.47;100.00
75740;BME280;64357;51.344;6.550;2023-05-06T01:32:37;101131.63;;;11.37;100.00
75740;BME280;64357;51.344;6.550;2023-05-06T01:40:48;101131.22;;;11.50;100.00
75740;BME280;64357;51.344;6.550;2023-05-06T01:43:26;101129.28;;;11.56;100.00
75740;BME280;64357;51.344;6.550;2023-05-06T01:45:53;101120.72;;;11.56;100.00
75740;BME280;64357;51.344;6.550;2023-05-06T01:48:23;101132.13;;;11.59;100.00
75740;BME280;64357;51.344;6.550;2023-05-06T01:50:52;101136.34;;;11.59;100.00
75740;BME280;64357;51.344;6.550;2023-05-06T01:53:18;101131.66;;;11.55;100.00
75740;BME280;64357;51.344;6.550;2023-05-06T01:55:43;101131.66;;;11.55;100.00
75740;BME280;64357;51.344;6.550;2023-05-06T01:58:14;101139.19;;;11.53;100.00
75740;BME280;64357;51.344;6.550;2023-05-06T02:00:40;101133.19;;;11.53;100.00
75740;BME280;64357;51.344;6.550;2023-05-06T02:03:05;101133.19;;;11.53;100.00
75740;BME280;64357;51.344;6.550;2023-05-06T02:05:30;101130.47;;;11.51;100.00
75740;BME280;64357;51.344;6.550;2023-05-06T02:07:56;101137.06;;;11.49;100.00
75740;BME280;64357;51.344;6.550;2023-05-06T02:10:22;101130.63;;;11.44;100.00
75740;BME280;64357;51.344;6.550;2023-05-06T02:12:47;101132.41;;;11.45;100.00
75740;BME280;64357;51.344;6.550;2023-05-06T02:15:13;101134.97;;;11.45;100.00
75740;BME280;64357;51.344;6.550;2023-05-06T02:17:39;101133.31;;;11.45;100.00
75740;BME280;64357;51.344;6.550;2023-05-06T02:20:05;101137.81;;;11.39;100.00
75740;BME280;64357;51.344;6.550;2023-05-06T02:22:33;101147.44;;;11.42;100.00
75740;BME280;64357;51.344;6.550;2023-05-06T02:24:59;101140.38;;;11.39;100.00
75740;BME280;64357;51.344;6.550;2023-05-06T02:27:24;101150.13;;;11.35;100.00
75740;BME280;64357;51.344;6.550;2023-05-06T02:29:50;101142.31;;;11.42;100.00
75740;BME280;64357;51.344;6.550;2023-05-06T02:32:15;101144.41;;;11.37;100.00
75740;BME280;64357;51.344;6.550;2023-05-06T02:34:40;101141.56;;;11.34;100.00
75740;BME280;64357;51.344;6.550;2023-05-06T02:37:06;101145.31;;;11.29;100.00
75740;BME280;64357;51.344;6.550;2023-05-06T02:39:36;101148.91;;;11.31;100.00
75740;BME280;64357;51.344;6.550;2023-05-06T02:42:01;101145.91;;;11.27;100.00
75740;BME280;64357;51.344;6.550;2023-05-06T02:44:27;101139.72;;;11.25;100.00
75740;BME280;64357;51.344;6.550;2023-05-06T02:46:55;101142.91;;;11.31;100.00
75740;BME280;64357;51.344;6.550;2023-05-06T02:49:20;101141.25;;;11.31;100.00
75740;BME280;64357;51.344;6.550;2023-05-06T02:51:45;101136.72;;;11.29;100.00
75740;BME280;64357;51.344;6.550;2023-05-06T02:54:13;101132.22;;;11.26;100.00
75740;BME280;64357;51.344;6.550;2023-05-06T02:56:41;101133.69;;;11.24;100.00
75740;BME280;64357;51.344;6.550;2023-05-06T02:59:07;101133.22;;;11.19;100.00
75740;BME280;64357;51.344;6.550;2023-05-06T03:01:32;101141.66;;;11.18;100.00
75740;BME280;64357;51.344;6.550;2023-05-06T03:03:58;101133.56;;;11.23;100.00
75740;BME280;64357;51.344;6.550;2023-05-06T03:06:23;101126.78;;;11.14;100.00
75740;BME280;64357;51.344;6.550;2023-05-06T03:08:48;101126.78;;;11.14;100.00
75740;BME280;64357;51.344;6.550;2023-05-06T03:11:14;101129.63;;;11.17;100.00
75740;BME280;64357;51.344;6.550;2023-05-06T03:13:41;101131.13;;;11.15;100.00
75740;BME280;64357;51.344;6.550;2023-05-06T03:16:11;101131.13;;;11.15;100.00
75740;BME280;64357;51.344;6.550;2023-05-06T03:18:37;101136.41;;;11.17;100.00
75740;BME280;64357;51.344;6.550;2023-05-06T03:21:02;101148.28;;;11.16;100.00
75740;BME280;64357;51.344;6.550;2023-05-06T03:23:29;101142.13;;;11.14;100.00
75740;BME280;64357;51.344;6.550;2023-05-06T03:25:54;101141.78;;;11.11;100.00
75740;BME280;64357;51.344;6.550;2023-05-06T03:28:19;101133.34;;;11.04;100.00
75740;BME280;64357;51.344;6.550;2023-05-06T03:30:45;101129.28;;;11.06;100.00
75740;BME280;64357;51.344;6.550;2023-05-06T03:33:10;101124.16;;;10.97;100.00
75740;BME280;64357;51.344;6.550;2023-05-06T03:35:38;101128.38;;;10.97;100.00
75740;BME280;64357;51.344;6.550;2023-05-06T03:38:04;101127.28;;;10.94;100.00
75740;BME280;64357;51.344;6.550;2023-05-06T03:40:32;101129.84;;;10.94;100.00
75740;BME280;64357;51.344;6.550;2023-05-06T03:42:57;101125.47;;;10.93;100.00
75740;BME280;64357;51.344;6.550;2023-05-06T03:45:23;101127.00;;;10.91;100.00
75740;BME280;64357;51.344;6.550;2023-05-06T03:47:48;101127.25;;;10.86;100.00
75740;BME280;64357;51.344;6.550;2023-05-06T03:50:13;101129.63;;;10.84;100.00
75740;BME280;64357;51.344;6.550;2023-05-06T03:52:39;101126.00;;;10.74;100.00
75740;BME280;64357;51.344;6.550;2023-05-06T03:55:05;101130.63;;;10.69;100.00
75740;BME280;64357;51.344;6.550;2023-05-06T03:57:33;101125.31;;;10.59;100.00
75740;BME280;64357;51.344;6.550;2023-05-06T04:00:03;101136.84;;;10.55;100.00
75740;BME280;64357;51.344;6.550;2023-05-06T04:02:36;101131.44;;;10.52;100.00
75740;BME280;64357;51.344;6.550;2023-05-06T04:05:01;101136.97;;;10.48;100.00
75740;BME280;64357;51.344;6.550;2023-05-06T04:07:28;101133.63;;;10.40;100.00
75740;BME280;64357;51.344;6.550;2023-05-06T04:09:53;101129.13;;;10.38;100.00
75740;BME280;64357;51.344;6.550;2023-05-06T04:12:19;101135.69;;;10.36;100.00
75740;BME280;64357;51.344;6.550;2023-05-06T04:14:49;101133.88;;;10.35;100.00
75740;BME280;64357;51.344;6.550;2023-05-06T04:17:14;101142.59;;;10.37;100.00
75740;BME280;64357;51.344;6.550;2023-05-06T04:19:39;101138.38;;;10.37;100.00
75740;BME280;64357;51.344;6.550;2023-05-06T04:22:07;101136.44;;;10.35;100.00
75740;BME280;64357;51.344;6.550;2023-05-06T04:24:33;101144.72;;;10.41;100.00
75740;BME280;64357;51.344;6.550;2023-05-06T04:27:01;101143.69;;;10.39;100.00
75740;BME280;64357;51.344;6.550;2023-05-06T04:29:27;101149.44;;;10.45;100.00
75740;BME280;64357;51.344;6.550;2023-05-06T04:31:54;101153.03;;;10.47;100.00
75740;BME280;64357;51.344;6.550;2023-05-06T04:34:22;101156.50;;;10.48;100.00
75740;BME280;64357;51.344;6.550;2023-05-06T04:36:51;101158.91;;;10.46;100.00
75740;BME280;64357;51.344;6.550;2023-05-06T04:39:18;101159.31;;;10.42;100.00
75740;BME280;64357;51.344;6.550;2023-05-06T04:41:44;101157.19;;;10.38;100.00
75740;BME280;64357;51.344;6.550;2023-05-06T04:44:12;101166.72;;;10.48;100.00
75740;BME280;64357;51.344;6.550;2023-05-06T04:46:38;101169.00;;;10.53;100.00
75740;BME280;64357;51.344;6.550;2023-05-06T04:49:08;101173.34;;;10.54;100.00
75740;BME280;64357;51.344;6.550;2023-05-06T04:51:35;101160.78;;;10.56;100.00
75740;BME280;64357;51.344;6.550;2023-05-06T04:54:01;101167.69;;;10.57;100.00
75740;BME280;64357;51.344;6.550;2023-05-06T04:56:26;101174.09;;;10.53;100.00
75740;BME280;64357;51.344;6.550;2023-05-06T04:58:52;101168.84;;;10.52;100.00
75740;BME280;64357;51.344;6.550;2023-05-06T05:01:19;101169.34;;;10.56;100.00
75740;BME280;64357;51.344;6.550;2023-05-06T05:03:44;101179.09;;;10.60;100.00
75740;BME280;64357;51.344;6.550;2023-05-06T05:06:10;101178.19;;;10.60;100.00
75740;BME280;64357;51.344;6.550;2023-05-06T05:08:37;101180.75;;;10.60;100.00
75740;BME280;64357;51.344;6.550;2023-05-06T05:11:07;101180.47;;;10.57;100.00
75740;BME280;64357;51.344;6.550;2023-05-06T05:13:33;101189.03;;;10.57;100.00
75740;BME280;64357;51.344;6.550;2023-05-06T05:15:58;101184.47;;;10.55;100.00
75740;BME280;64357;51.344;6.550;2023-05-06T05:18:23;101186.88;;;10.53;100.00
75740;BME280;64357;51.344;6.550;2023-05-06T05:20:51;101189.78;;;10.56;100.00
75740;BME280;64357;51.344;6.550;2023-05-06T05:23:17;101199.28;;;10.66;100.00
75740;BME280;64357;51.344;6.550;2023-05-06T05:25:42;101193.91;;;10.72;100.00
75740;BME280;64357;51.344;6.550;2023-05-06T05:28:07;101198.63;;;10.84;100.00
75740;BME280;64357;51.344;6.550;2023-05-06T05:30:33;101194.34;;;10.92;100.00
75740;BME280;64357;51.344;6.550;2023-05-06T05:33:01;101190.00;;;11.00;100.00
75740;BME280;64357;51.344;6.550;2023-05-06T05:35:26;101188.09;;;11.06;100.00
75740;BME280;64357;51.344;6.550;2023-05-06T05:37:51;101196.72;;;11.15;100.00
75740;BME280;64357;51.344;6.550;2023-05-06T05:40:17;101193.28;;;11.23;100.00
75740;BME280;64357;51.344;6.550;2023-05-06T05:42:42;101202.53;;;11.38;100.00
75740;BME280;64357;51.344;6.550;2023-05-06T05:45:10;101200.31;;;11.50;100.00
75740;BME280;64357;51.344;6.550;2023-05-06T05:47:37;101193.25;;;11.56;100.00
75740;BME280;64357;51.344;6.550;2023-05-06T05:50:03;101202.13;;;11.60;100.00
75740;BME280;64357;51.344;6.550;2023-05-06T05:52:28;101200.16;;;11.66;100.00
75740;BME280;64357;51.344;6.550;2023-05-06T05:54:54;101204.91;;;11.79;100.00
75740;BME280;64357;51.344;6.550;2023-05-06T05:57:19;101201.16;;;11.84;100.00
75740;BME280;64357;51.344;6.550;2023-05-06T05:59:45;101204.34;;;11.98;100.00
75740;BME280;64357;51.344;6.550;2023-05-06T06:02:15;101210.22;;;12.06;100.00
75740;BME280;64357;51.344;6.550;2023-05-06T06:04:43;101204.63;;;12.19;100.00
75740;BME280;64357;51.344;6.550;2023-05-06T06:07:13;101201.47;;;12.30;100.00
75740;BME280;64357;51.344;6.550;2023-05-06T06:09:39;101207.38;;;12.29;100.00
75740;BME280;64357;51.344;6.550;2023-05-06T06:12:09;101208.09;;;12.37;100.00
75740;BME280;64357;51.344;6.550;2023-05-06T06:14:34;101212.03;;;12.42;100.00
75740;BME280;64357;51.344;6.550;2023-05-06T06:17:02;101204.06;;;12.39;100.00
75740;BME280;64357;51.344;6.550;2023-05-06T06:19:30;101202.22;;;12.46;100.00
75740;BME280;64357;51.344;6.550;2023-05-06T06:21:56;101206.88;;;12.59;100.00
75740;BME280;64357;51.344;6.550;2023-05-06T06:24:24;101204.16;;;12.66;100.00
75740;BME280;64357;51.344;6.550;2023-05-06T06:26:50;101212.88;;;12.77;100.00
75740;BME280;64357;51.344;6.550;2023-05-06T06:29:18;101208.66;;;12.77;100.00
75740;BME280;64357;51.344;6.550;2023-05-06T06:31:46;101215.91;;;12.81;100.00
75740;BME280;64357;51.344;6.550;2023-05-06T06:34:14;101212.75;;;12.75;100.00
75740;BME280;64357;51.344;6.550;2023-05-06T06:36:42;101209.09;;;12.91;100.00
75740;BME280;64357;51.344;6.550;2023-05-06T06:39:11;101206.81;;;12.94;100.00
75740;BME280;64357;51.344;6.550;2023-05-06T06:41:39;101220.66;;;13.04;99.36
75740;BME280;64357;51.344;6.550;2023-05-06T06:44:05;101220.34;;;13.10;99.47
75740;BME280;64357;51.344;6.550;2023-05-06T06:46:33;101207.06;;;13.14;99.21
75740;BME280;64357;51.344;6.550;2023-05-06T06:48:59;101214.00;;;13.24;97.46
75740;BME280;64357;51.344;6.550;2023-05-06T06:51:28;101211.28;;;13.31;97.98
75740;BME280;64357;51.344;6.550;2023-05-06T06:53:53;101220.84;;;13.42;97.71
75740;BME280;64357;51.344;6.550;2023-05-06T06:56:19;101221.59;;;13.50;96.94
75740;BME280;64357;51.344;6.550;2023-05-06T06:58:44;101226.06;;;13.61;96.21
75740;BME280;64357;51.344;6.550;2023-05-06T07:01:09;101215.94;;;13.63;96.34
75740;BME280;64357;51.344;6.550;2023-05-06T07:03:35;101224.44;;;13.80;95.49
75740;BME280;64357;51.344;6.550;2023-05-06T07:06:03;101216.53;;;14.06;93.87
75740;BME280;64357;51.344;6.550;2023-05-06T07:08:31;101213.16;;;13.97;94.45
75740;BME280;64357;51.344;6.550;2023-05-06T07:10:59;101220.22;;;14.19;93.70
75740;BME280;64357;51.344;6.550;2023-05-06T07:13:24;101220.19;;;14.08;94.14
75740;BME280;64357;51.344;6.550;2023-05-06T07:15:50;101209.22;;;14.20;93.28
75740;BME280;64357;51.344;6.550;2023-05-06T07:18:15;101212.03;;;14.23;92.83
75740;BME280;64357;51.344;6.550;2023-05-06T07:20:41;101209.34;;;14.21;92.69
75740;BME280;64357;51.344;6.550;2023-05-06T07:23:09;101212.88;;;14.32;92.26
75740;BME280;64357;51.344;6.550;2023-05-06T07:25:40;101213.81;;;14.51;90.07
75740;BME280;64357;51.344;6.550;2023-05-06T07:28:05;101207.72;;;14.70;88.15
75740;BME280;64357;51.344;6.550;2023-05-06T07:30:30;101210.94;;;14.67;88.27
75740;BME280;64357;51.344;6.550;2023-05-06T07:32:58;101219.78;;;14.89;87.03
75740;BME280;64357;51.344;6.550;2023-05-06T07:35:26;101212.50;;;15.04;86.18
75740;BME280;64357;51.344;6.550;2023-05-06T07:37:51;101221.75;;;15.02;86.78
75740;BME280;64357;51.344;6.550;2023-05-06T07:40:17;101220.00;;;15.22;85.80
75740;BME280;64357;51.344;6.550;2023-05-06T07:42:42;101224.81;;;15.37;85.08
75740;BME280;64357;51.344;6.550;2023-05-06T07:45:08;101230.38;;;15.52;83.47
75740;BME280;64357;51.344;6.550;2023-05-06T07:47:39;101230.28;;;15.61;83.52
75740;BME280;64357;51.344;6.550;2023-05-06T07:50:04;101223.38;;;15.80;82.13
75740;BME280;64357;51.344;6.550;2023-05-06T07:52:32;101228.00;;;15.94;81.37
75740;BME280;64357;51.344;6.550;2023-05-06T07:55:03;101240.72;;;16.34;79.32
75740;BME280;64357;51.344;6.550;2023-05-06T07:57:29;101235.94;;;16.48;78.12
75740;BME280;64357;51.344;6.550;2023-05-06T07:59:57;101237.44;;;16.67;77.16
75740;BME280;64357;51.344;6.550;2023-05-06T08:02:22;101237.94;;;17.37;74.43
75740;BME280;64357;51.344;6.550;2023-05-06T08:04:53;101236.56;;;17.74;70.69
75740;BME280;64357;51.344;6.550;2023-05-06T08:07:21;101244.09;;;19.22;66.16
75740;BME280;64357;51.344;6.550;2023-05-06T08:09:46;101251.09;;;20.10;61.30
75740;BME280;64357;51.344;6.550;2023-05-06T08:12:11;101243.72;;;20.54;59.22
75740;BME280;64357;51.344;6.550;2023-05-06T08:14:37;101250.28;;;21.15;57.69
75740;BME280;64357;51.344;6.550;2023-05-06T08:17:04;101242.44;;;20.47;59.06
75740;BME280;64357;51.344;6.550;2023-05-06T08:19:30;101251.41;;;21.60;55.83
75740;BME280;64357;51.344;6.550;2023-05-06T08:21:55;101244.63;;;21.49;55.62
75740;BME280;64357;51.344;6.550;2023-05-06T08:24:27;101241.66;;;21.71;55.11
75740;BME280;64357;51.344;6.550;2023-05-06T08:26:52;101257.91;;;20.86;57.82
75740;BME280;64357;51.344;6.550;2023-05-06T08:29:18;101247.94;;;22.32;53.32
75740;BME280;64357;51.344;6.550;2023-05-06T08:31:43;101250.72;;;21.49;53.94
75740;BME280;64357;51.344;6.550;2023-05-06T08:34:08;101243.28;;;22.12;52.50
75740;BME280;64357;51.344;6.550;2023-05-06T08:36:34;101241.63;;;21.99;51.18
75740;BME280;64357;51.344;6.550;2023-05-06T08:39:02;101248.13;;;21.77;53.34
75740;BME280;64357;51.344;6.550;2023-05-06T08:41:33;101236.88;;;21.36;55.44
75740;BME280;64357;51.344;6.550;2023-05-06T08:44:02;101238.31;;;21.73;55.09
75740;BME280;64357;51.344;6.550;2023-05-06T08:46:29;101236.28;;;23.01;50.63
75740;BME280;64357;51.344;6.550;2023-05-06T08:48:58;101238.88;;;22.86;51.42
75740;BME280;64357;51.344;6.550;2023-05-06T08:51:28;101242.69;;;23.22;49.82
75740;BME280;64357;51.344;6.550;2023-05-06T08:53:54;101246.13;;;20.77;54.98
75740;BME280;64357;51.344;6.550;2023-05-06T08:56:28;101243.94;;;20.06;58.29
75740;BME280;64357;51.344;6.550;2023-05-06T08:58:56;101248.22;;;20.96;56.00
75740;BME280;64357;51.344;6.550;2023-05-06T09:01:26;101236.03;;;20.95;56.74
75740;BME280;64357;51.344;6.550;2023-05-06T09:04:03;101240.13;;;21.05;55.91
75740;BME280;64357;51.344;6.550;2023-05-06T09:06:30;101240.22;;;19.40;60.42
75740;BME280;64357;51.344;6.550;2023-05-06T09:08:55;101233.03;;;20.49;57.20
75740;BME280;64357;51.344;6.550;2023-05-06T09:11:25;101236.59;;;21.04;55.76
75740;BME280;64357;51.344;6.550;2023-05-06T09:14:14;101235.75;;;20.13;58.29
75740;BME280;64357;51.344;6.550;2023-05-06T09:16:50;101228.09;;;20.28;58.12
75740;BME280;64357;51.344;6.550;2023-05-06T09:19:20;101221.19;;;22.05;53.46
75740;BME280;64357;51.344;6.550;2023-05-06T09:21:47;101229.16;;;23.13;50.65
75740;BME280;64357;51.344;6.550;2023-05-06T09:24:16;101224.72;;;21.49;54.27
75740;BME280;64357;51.344;6.550;2023-05-06T09:26:44;101229.97;;;22.22;51.97
75740;BME280;64357;51.344;6.550;2023-05-06T09:29:10;101227.69;;;22.72;51.07
75740;BME280;64357;51.344;6.550;2023-05-06T09:31:40;101224.06;;;22.85;50.30
75740;BME280;64357;51.344;6.550;2023-05-06T09:34:06;101216.06;;;22.06;51.40
75740;BME280;64357;51.344;6.550;2023-05-06T09:36:32;101216.34;;;22.41;51.09
75740;BME280;64357;51.344;6.550;2023-05-06T09:38:58;101209.75;;;22.03;52.37
75740;BME280;64357;51.344;6.550;2023-05-06T09:41:24;101210.72;;;22.94;50.49
75740;BME280;64357;51.344;6.550;2023-05-06T09:43:58;101213.22;;;22.46;50.67
75740;BME280;64357;51.344;6.550;2023-05-06T09:46:26;101218.25;;;22.28;50.78
75740;BME280;64357;51.344;6.550;2023-05-06T09:48:53;101206.09;;;23.21;49.55
75740;BME280;64357;51.344;6.550;2023-05-06T09:51:20;101197.41;;;24.19;46.76
75740;BME280;64357;51.344;6.550;2023-05-06T09:53:48;101202.09;;;24.43;45.48
75740;BME280;64357;51.344;6.550;2023-05-06T09:56:14;101201.13;;;24.77;44.12
75740;BME280;64357;51.344;6.550;2023-05-06T09:58:45;101197.69;;;24.42;44.08
75740;BME280;64357;51.344;6.550;2023-05-06T10:01:11;101191.03;;;24.49;44.21
75740;BME280;64357;51.344;6.550;2023-05-06T10:03:41;101192.25;;;23.38;46.36
75740;BME280;64357;51.344;6.550;2023-05-06T10:06:10;101191.75;;;22.35;48.76
75740;BME280;64357;51.344;6.550;2023-05-06T10:08:36;101194.16;;;21.88;50.79
75740;BME280;64357;51.344;6.550;2023-05-06T10:11:04;101187.13;;;23.07;48.08
75740;BME280;64357;51.344;6.550;2023-05-06T10:13:36;101188.88;;;22.01;50.18
75740;BME280;64357;51.344;6.550;2023-05-06T10:16:06;101202.63;;;22.14;50.09
75740;BME280;64357;51.344;6.550;2023-05-06T10:18:35;101191.81;;;22.98;47.97
75740;BME280;64357;51.344;6.550;2023-05-06T10:21:09;101191.88;;;23.30;48.30
75740;BME280;64357;51.344;6.550;2023-05-06T10:23:52;101203.41;;;25.06;44.88
75740;BME280;64357;51.344;6.550;2023-05-06T10:26:21;101193.47;;;25.17;43.52
75740;BME280;64357;51.344;6.550;2023-05-06T10:28:49;101179.47;;;24.43;44.58
75740;BME280;64357;51.344;6.550;2023-05-06T10:31:17;101202.75;;;24.92;44.19
75740;BME280;64357;51.344;6.550;2023-05-06T10:33:47;101182.91;;;24.97;43.79
75740;BME280;64357;51.344;6.550;2023-05-06T10:36:24;101191.34;;;25.28;43.92
75740;BME280;64357;51.344;6.550;2023-05-06T10:38:59;101183.03;;;23.93;46.24
75740;BME280;64357;51.344;6.550;2023-05-06T10:41:26;101186.31;;;23.73;46.30
75740;BME280;64357;51.344;6.550;2023-05-06T10:43:58;101179.56;;;24.11;45.13
75740;BME280;64357;51.344;6.550;2023-05-06T10:46:27;101184.91;;;25.21;42.55
75740;BME280;64357;51.344;6.550;2023-05-06T10:51:34;101165.84;;;22.22;49.81
75740;BME280;64357;51.344;6.550;2023-05-06T10:59:12;101163.75;;;22.46;50.14
75740;BME280;64357;51.344;6.550;2023-05-06T11:01:39;101155.69;;;23.53;46.64
75740;BME280;64357;51.344;6.550;2023-05-06T11:04:10;101152.97;;;25.09;43.25
75740;BME280;64357;51.344;6.550;2023-05-06T11:09:04;101164.91;;;22.22;49.02
75740;BME280;64357;51.344;6.550;2023-05-06T11:11:50;101162.38;;;22.08;48.87
75740;BME280;64357;51.344;6.550;2023-05-06T11:14:37;101163.06;;;23.61;45.49
75740;BME280;64357;51.344;6.550;2023-05-06T11:17:07;101159.19;;;23.37;45.82
75740;BME280;64357;51.344;6.550;2023-05-06T11:19:39;101149.56;;;23.52;45.26
75740;BME280;64357;51.344;6.550;2023-05-06T11:22:05;101138.81;;;22.97;46.39
75740;BME280;64357;51.344;6.550;2023-05-06T11:24:41;101146.06;;;23.03;47.10
75740;BME280;64357;51.344;6.550;2023-05-06T11:27:10;101135.88;;;22.91;45.22
75740;BME280;64357;51.344;6.550;2023-05-06T11:29:37;101141.25;;;22.94;44.77
75740;BME280;64357;51.344;6.550;2023-05-06T11:32:04;101149.44;;;22.54;45.24
75740;BME280;64357;51.344;6.550;2023-05-06T11:34:34;101146.16;;;22.42;46.22
75740;BME280;64357;51.344;6.550;2023-05-06T11:37:08;101145.69;;;21.04;50.33
75740;BME280;64357;51.344;6.550;2023-05-06T11:39:35;101143.50;;;20.97;50.38
75740;BME280;64357;51.344;6.550;2023-05-06T11:42:04;101140.81;;;20.96;49.97
75740;BME280;64357;51.344;6.550;2023-05-06T11:44:33;101136.38;;;21.79;48.68
75740;BME280;64357;51.344;6.550;2023-05-06T11:47:03;101136.03;;;22.63;47.43
75740;BME280;64357;51.344;6.550;2023-05-06T11:49:38;101138.47;;;23.73;45.26
75740;BME280;64357;51.344;6.550;2023-05-06T11:52:08;101136.41;;;22.85;45.66
75740;BME280;64357;51.344;6.550;2023-05-06T11:54:35;101128.31;;;22.65;46.41
75740;BME280;64357;51.344;6.550;2023-05-06T11:57:02;101125.34;;;21.83;48.20
75740;BME280;64357;51.344;6.550;2023-05-06T11:59:31;101134.16;;;22.15;47.81
75740;BME280;64357;51.344;6.550;2023-05-06T12:02:06;101136.56;;;22.41;47.38
75740;BME280;64357;51.344;6.550;2023-05-06T12:04:45;101131.84;;;23.79;44.51
75740;BME280;64357;51.344;6.550;2023-05-06T12:07:12;101125.63;;;23.43;44.54
75740;BME280;64357;51.344;6.550;2023-05-06T12:09:41;101123.53;;;22.72;46.97
75740;BME280;64357;51.344;6.550;2023-05-06T12:12:16;101133.97;;;22.26;47.94
75740;BME280;64357;51.344;6.550;2023-05-06T12:14:43;101128.25;;;21.45;49.90
75740;BME280;64357;51.344;6.550;2023-05-06T12:17:12;101117.41;;;21.09;50.38
75740;BME280;64357;51.344;6.550;2023-05-06T12:19:37;101122.47;;;20.80;50.37
75740;BME280;64357;51.344;6.550;2023-05-06T12:22:22;101127.47;;;20.90;49.96
75740;BME280;64357;51.344;6.550;2023-05-06T12:24:51;101128.91;;;21.27;49.57
75740;BME280;64357;51.344;6.550;2023-05-06T12:27:34;101128.84;;;21.54;48.85
75740;BME280;64357;51.344;6.550;2023-05-06T12:30:00;101124.81;;;21.59;48.38
75740;BME280;64357;51.344;6.550;2023-05-06T12:32:29;101120.38;;;22.47;46.14
75740;BME280;64357;51.344;6.550;2023-05-06T12:34:54;101131.63;;;22.31;47.34
75740;BME280;64357;51.344;6.550;2023-05-06T12:37:28;101123.63;;;21.69;48.55
75740;BME280;64357;51.344;6.550;2023-05-06T12:39:54;101116.34;;;21.63;48.55
75740;BME280;64357;51.344;6.550;2023-05-06T12:42:23;101118.63;;;22.16;47.35
75740;BME280;64357;51.344;6.550;2023-05-06T12:44:48;101114.88;;;22.73;45.74
75740;BME280;64357;51.344;6.550;2023-05-06T12:47:21;101117.75;;;22.78;45.37
75740;BME280;64357;51.344;6.550;2023-05-06T12:49:51;101122.72;;;22.42;46.42
75740;BME280;64357;51.344;6.550;2023-05-06T12:52:21;101119.84;;;23.00;45.06
75740;BME280;64357;51.344;6.550;2023-05-06T12:54:48;101118.00;;;22.20;46.37
75740;BME280;64357;51.344;6.550;2023-05-06T12:57:16;101113.06;;;22.56;45.46
75740;BME280;64357;51.344;6.550;2023-05-06T12:59:47;101112.88;;;22.07;46.41
75740;BME280;64357;51.344;6.550;2023-05-06T13:02:13;101115.81;;;22.28;46.04
75740;BME280;64357;51.344;6.550;2023-05-06T13:04:38;101104.09;;;22.51;46.24
75740;BME280;64357;51.344;6.550;2023-05-06T13:07:03;101104.19;;;22.52;45.57